Time;durP1;ratioP1;P1;durP2;ratioP2;P2;SDS_P1;SDS_P2;PMS_P1;PMS_P2;Temp;Humidity;BMP_temperature;BMP_pressure;BME280_temperature;BME280_humidity;BME280_pressure;Samples;Min_cycle;Max_cycle;Signal;HPM_P1;HPM_P2
2021/05/02 00:00:32;;;;;;;;;;;6.60;99.90;;;;;;8354852;28;19912;-64
2021/05/02 00:04:32;;;;;;;;;;;6.60;99.90;;;;;;8356668;28;19964;-64
2021/05/02 00:08:33;;;;;;;;;;;6.70;99.90;;;;;;8357063;28;19908;-64
2021/05/02 00:12:34;;;;;;;;;;;6.70;99.90;;;;;;8360606;28;20333;-64
2021/05/02 00:16:35;;;;;;;;;;;6.70;99.90;;;;;;8364251;28;19909;-63
2021/05/02 00:20:36;;;;;;;;;;;6.70;99.90;;;;;;8364480;28;20427;-64
2021/05/02 00:24:37;;;;;;;;;;;6.60;99.90;;;;;;8362520;28;19920;-64
2021/05/02 00:28:43;;;;;;;;;;;6.50;99.90;;;;;;8363870;28;19909;-64
2021/05/02 00:32:46;;;;;;;;;;;6.50;99.90;;;;;;8363637;28;19909;-64
2021/05/02 00:36:47;;;;;;;;;;;6.60;99.90;;;;;;8363511;28;19916;-64
2021/05/02 00:40:53;;;;;;;;;;;6.50;99.90;;;;;;8363025;28;19909;-64
2021/05/02 00:45:03;;;;;;;;;;;6.40;99.90;;;;;;8362961;28;19944;-64
2021/05/02 00:49:15;;;;;;;;;;;6.30;99.90;;;;;;8363059;28;20386;-64
2021/05/02 00:53:22;;;;;;;;;;;6.20;99.90;;;;;;8362678;28;19909;-64
2021/05/02 00:57:26;;;;;;;;;;;6.10;99.90;;;;;;8362611;28;20418;-65
2021/05/02 01:01:29;;;;;;;;;;;6.20;99.90;;;;;;8361131;28;19912;-64
2021/05/02 01:05:30;;;;;;;;;;;6.20;99.90;;;;;;8362414;28;19913;-65
2021/05/02 01:09:32;;;;;;;;;;;6.20;99.90;;;;;;8362383;28;19909;-64
2021/05/02 01:13:35;;;;;;;;;;;6.10;99.90;;;;;;8361889;28;19958;-65
2021/05/02 01:17:38;;;;;;;;;;;6.00;99.90;;;;;;8362092;28;19912;-65
2021/05/02 01:21:40;;;;;;;;;;;5.80;99.90;;;;;;8361935;28;19995;-64
2021/05/02 01:25:40;;;;;;;;;;;5.80;99.90;;;;;;8361653;28;19947;-65
2021/05/02 01:29:41;;;;;;;;;;;5.80;99.90;;;;;;8361522;28;19912;-65
2021/05/02 01:33:42;;;;;;;;;;;5.80;99.90;;;;;;8361447;28;19912;-65
2021/05/02 01:37:42;;;;;;;;;;;5.70;99.90;;;;;;8361831;28;19919;-64
2021/05/02 01:41:43;;;;;;;;;;;5.70;99.90;;;;;;8361402;28;19916;-64
2021/05/02 01:45:43;;;;;;;;;;;5.70;99.90;;;;;;8361459;28;19938;-64
2021/05/02 01:49:49;;;;;;;;;;;5.70;99.90;;;;;;8361566;28;19908;-63
2021/05/02 01:53:50;;;;;;;;;;;5.60;99.90;;;;;;8361195;28;20512;-64
2021/05/02 01:57:51;;;;;;;;;;;5.60;99.90;;;;;;8360095;28;19912;-64
2021/05/02 02:01:52;;;;;;;;;;;5.50;99.90;;;;;;8349397;28;19916;-64
2021/05/02 02:05:52;;;;;;;;;;;5.50;99.90;;;;;;8359860;28;19986;-64
2021/05/02 02:09:53;;;;;;;;;;;5.40;99.90;;;;;;8360832;28;19909;-64
2021/05/02 02:13:53;;;;;;;;;;;5.50;99.90;;;;;;8360186;28;19912;-64
2021/05/02 02:17:54;;;;;;;;;;;5.60;99.90;;;;;;8360129;28;19916;-63
2021/05/02 02:21:57;;;;;;;;;;;5.40;99.90;;;;;;8360322;28;19915;-63
2021/05/02 02:26:03;;;;;;;;;;;5.40;99.90;;;;;;8358618;28;19913;-64
2021/05/02 02:30:05;;;;;;;;;;;5.40;99.90;;;;;;8360010;28;20480;-64
2021/05/02 02:34:05;;;;;;;;;;;5.30;99.90;;;;;;8359377;28;19909;-64
2021/05/02 02:38:07;;;;;;;;;;;5.30;99.90;;;;;;8359839;28;19916;-64
2021/05/02 02:42:11;;;;;;;;;;;5.30;99.90;;;;;;8359791;28;19924;-64
2021/05/02 02:46:15;;;;;;;;;;;5.30;99.90;;;;;;8359580;28;20011;-64
2021/05/02 02:50:19;;;;;;;;;;;5.20;99.90;;;;;;8358282;28;19920;-63
2021/05/02 02:54:20;;;;;;;;;;;5.20;99.90;;;;;;8358806;28;20286;-63
2021/05/02 02:58:21;;;;;;;;;;;5.20;99.90;;;;;;8359413;28;19917;-63
2021/05/02 03:02:23;;;;;;;;;;;5.10;99.90;;;;;;8357608;28;19956;-63
2021/05/02 03:06:27;;;;;;;;;;;5.20;99.90;;;;;;8359222;28;20184;-64
2021/05/02 03:10:28;;;;;;;;;;;5.10;99.90;;;;;;8359085;28;20467;-64
2021/05/02 03:14:28;;;;;;;;;;;5.10;99.90;;;;;;8358718;28;19915;-63
2021/05/02 03:18:51;;;;;;;;;;;5.10;99.90;;;;;;8358962;28;19909;-64
2021/05/02 03:23:02;;;;;;;;;;;5.10;99.90;;;;;;8358743;28;19913;-64
2021/05/02 03:27:04;;;;;;;;;;;5.10;99.90;;;;;;8358886;28;19919;-63
2021/05/02 03:31:05;;;;;;;;;;;5.10;99.90;;;;;;8358604;28;20008;-63
2021/05/02 03:35:06;;;;;;;;;;;5.10;99.90;;;;;;8358571;28;20497;-63
2021/05/02 03:39:09;;;;;;;;;;;5.10;99.90;;;;;;8358494;28;20390;-62
2021/05/02 03:43:10;;;;;;;;;;;5.00;99.90;;;;;;8356926;28;19968;-63
2021/05/02 03:47:11;;;;;;;;;;;5.10;99.90;;;;;;8361187;28;19932;-63
2021/05/02 03:51:11;;;;;;;;;;;5.00;99.90;;;;;;8364892;28;20326;-64
2021/05/02 03:55:12;;;;;;;;;;;5.00;99.90;;;;;;8364677;28;19913;-63
2021/05/02 03:59:16;;;;;;;;;;;5.00;99.90;;;;;;8363547;28;20525;-63
2021/05/02 04:03:17;;;;;;;;;;;5.10;99.90;;;;;;8363145;28;19913;-64
2021/05/02 04:07:17;;;;;;;;;;;5.00;99.90;;;;;;8364821;28;20007;-64
2021/05/02 04:11:18;;;;;;;;;;;5.10;99.90;;;;;;8364691;28;20388;-64
2021/05/02 04:15:19;;;;;;;;;;;5.10;99.90;;;;;;8363909;28;20047;-64
2021/05/02 04:19:19;;;;;;;;;;;5.20;99.90;;;;;;8364521;28;19909;-64
2021/05/02 04:23:19;;;;;;;;;;;5.10;99.90;;;;;;8362868;28;19920;-63
2021/05/02 04:27:20;;;;;;;;;;;5.20;99.90;;;;;;8364115;28;19909;-64
2021/05/02 04:31:20;;;;;;;;;;;5.10;99.90;;;;;;8363782;28;19948;-63
2021/05/02 04:35:21;;;;;;;;;;;5.10;99.90;;;;;;8363702;28;19908;-63
2021/05/02 04:39:22;;;;;;;;;;;5.10;99.90;;;;;;8363532;28;19913;-63
2021/05/02 04:43:22;;;;;;;;;;;5.10;99.90;;;;;;8361895;28;19924;-64
2021/05/02 04:47:23;;;;;;;;;;;5.00;99.90;;;;;;8363135;28;19909;-62
2021/05/02 04:51:23;;;;;;;;;;;5.10;99.90;;;;;;8357000;28;19920;-63
2021/05/02 04:55:24;;;;;;;;;;;5.10;99.90;;;;;;8356910;28;19939;-62
2021/05/02 04:59:24;;;;;;;;;;;5.00;99.90;;;;;;8361061;28;20291;-64
2021/05/02 05:03:25;;;;;;;;;;;5.10;99.90;;;;;;8358833;28;20678;-64
2021/05/02 05:07:26;;;;;;;;;;;5.10;99.90;;;;;;8361164;28;19958;-63
2021/05/02 05:11:26;;;;;;;;;;;5.10;99.90;;;;;;8357461;28;19928;-63
2021/05/02 05:15:27;;;;;;;;;;;5.20;99.90;;;;;;8357308;28;19916;-62
2021/05/02 05:19:27;;;;;;;;;;;5.30;99.90;;;;;;8361476;28;20388;-63
2021/05/02 05:23:27;;;;;;;;;;;5.30;99.90;;;;;;8357947;28;19924;-64
2021/05/02 05:27:28;;;;;;;;;;;5.20;99.90;;;;;;8329631;28;19999;-63
2021/05/02 05:31:28;;;;;;;;;;;5.20;99.90;;;;;;8341203;28;19996;-63
2021/05/02 05:35:29;;;;;;;;;;;5.20;99.90;;;;;;8337915;28;19927;-62
2021/05/02 05:39:29;;;;;;;;;;;5.10;99.90;;;;;;8343213;28;19924;-64
2021/05/02 05:43:30;;;;;;;;;;;5.00;99.90;;;;;;8341709;28;20296;-63
2021/05/02 05:47:30;;;;;;;;;;;5.10;99.90;;;;;;8355112;28;19940;-64
2021/05/02 05:51:31;;;;;;;;;;;5.20;99.90;;;;;;8347732;28;19913;-62
2021/05/02 05:55:31;;;;;;;;;;;5.20;99.90;;;;;;8331053;28;19924;-63
2021/05/02 05:59:32;;;;;;;;;;;5.10;99.90;;;;;;8360774;28;20462;-63
2021/05/02 06:03:32;;;;;;;;;;;5.00;99.90;;;;;;8359429;28;19916;-63
2021/05/02 06:07:33;;;;;;;;;;;5.10;99.90;;;;;;8360145;28;20260;-63
2021/05/02 06:11:34;;;;;;;;;;;5.10;99.90;;;;;;8348409;28;20011;-62
2021/05/02 06:15:34;;;;;;;;;;;5.20;99.90;;;;;;8356008;28;19919;-63
2021/05/02 06:19:35;;;;;;;;;;;5.30;99.90;;;;;;8346421;28;20385;-63
2021/05/02 06:23:35;;;;;;;;;;;5.40;99.90;;;;;;8326780;28;19921;-64
2021/05/02 06:27:36;;;;;;;;;;;5.50;99.90;;;;;;8329385;28;19924;-64
2021/05/02 06:31:36;;;;;;;;;;;5.60;99.90;;;;;;8345552;28;19917;-63
2021/05/02 06:35:37;;;;;;;;;;;5.70;99.90;;;;;;8353891;28;19963;-65
2021/05/02 06:39:37;;;;;;;;;;;5.80;99.90;;;;;;8352521;28;19917;-64
2021/05/02 06:43:37;;;;;;;;;;;6.10;99.90;;;;;;8341849;28;19921;-63
2021/05/02 06:47:38;;;;;;;;;;;6.20;99.90;;;;;;8346343;28;19978;-63
2021/05/02 06:51:39;;;;;;;;;;;6.40;99.90;;;;;;8359136;28;19952;-63
2021/05/02 06:55:39;;;;;;;;;;;6.50;99.90;;;;;;8358774;28;20375;-63
2021/05/02 06:59:40;;;;;;;;;;;6.40;99.90;;;;;;8332397;28;20379;-64
2021/05/02 07:03:41;;;;;;;;;;;6.30;99.90;;;;;;8343791;28;19990;-64
2021/05/02 07:07:42;;;;;;;;;;;6.40;99.90;;;;;;8342572;28;19995;-65
2021/05/02 07:11:42;;;;;;;;;;;6.20;99.90;;;;;;8336279;28;19919;-64
2021/05/02 07:15:43;;;;;;;;;;;6.50;99.90;;;;;;8347412;28;20436;-65
2021/05/02 07:19:44;;;;;;;;;;;6.80;99.90;;;;;;8336613;28;19914;-65
2021/05/02 07:23:46;;;;;;;;;;;7.30;99.90;;;;;;8347555;28;19920;-65
2021/05/02 07:27:46;;;;;;;;;;;7.20;99.90;;;;;;8335891;28;19912;-64
2021/05/02 07:31:47;;;;;;;;;;;7.20;99.90;;;;;;8361502;28;19951;-65
2021/05/02 07:35:49;;;;;;;;;;;7.30;99.90;;;;;;8364691;28;19912;-65
2021/05/02 07:39:49;;;;;;;;;;;7.40;99.90;;;;;;8357641;28;19913;-65
2021/05/02 07:43:50;;;;;;;;;;;7.20;99.90;;;;;;8333308;28;19960;-65
2021/05/02 07:47:50;;;;;;;;;;;7.30;99.90;;;;;;8347321;28;20004;-64
2021/05/02 07:51:51;;;;;;;;;;;7.50;99.90;;;;;;8343844;28;19932;-65
2021/05/02 07:55:52;;;;;;;;;;;7.60;99.90;;;;;;8332321;28;20362;-64
2021/05/02 07:59:52;;;;;;;;;;;7.70;99.90;;;;;;8331936;28;20587;-65
2021/05/02 08:03:53;;;;;;;;;;;7.30;99.90;;;;;;8339973;28;19921;-65
2021/05/02 08:07:53;;;;;;;;;;;7.40;99.90;;;;;;8332188;28;20342;-65
2021/05/02 08:11:54;;;;;;;;;;;7.20;99.90;;;;;;8332210;28;19944;-65
2021/05/02 08:15:54;;;;;;;;;;;7.40;99.90;;;;;;8343111;28;19913;-64
2021/05/02 08:19:55;;;;;;;;;;;7.40;99.90;;;;;;8346656;28;19913;-65
2021/05/02 08:23:56;;;;;;;;;;;7.70;99.90;;;;;;8348952;28;19916;-65
2021/05/02 08:27:57;;;;;;;;;;;8.10;99.90;;;;;;8362364;28;19916;-64
2021/05/02 08:31:58;;;;;;;;;;;8.10;99.90;;;;;;8362066;28;19944;-65
2021/05/02 08:35:58;;;;;;;;;;;8.10;99.90;;;;;;8360418;28;19916;-64
2021/05/02 08:39:59;;;;;;;;;;;8.40;99.90;;;;;;8360756;28;19912;-65
2021/05/02 08:44:02;;;;;;;;;;;8.40;99.90;;;;;;8357614;28;19924;-65
2021/05/02 08:48:04;;;;;;;;;;;7.80;99.90;;;;;;8346636;28;19988;-65
2021/05/02 08:52:05;;;;;;;;;;;7.50;99.90;;;;;;8353450;28;20391;-65
2021/05/02 08:56:05;;;;;;;;;;;7.70;99.90;;;;;;8351027;28;19913;-65
2021/05/02 09:00:07;;;;;;;;;;;7.80;99.90;;;;;;8360848;28;19913;-64
2021/05/02 09:04:08;;;;;;;;;;;8.30;99.90;;;;;;8360316;28;19916;-64
2021/05/02 09:08:09;;;;;;;;;;;8.80;99.90;;;;;;8360397;28;20003;-65
2021/05/02 09:12:17;;;;;;;;;;;9.10;99.90;;;;;;8360995;28;19965;-64
2021/05/02 09:16:18;;;;;;;;;;;9.10;99.90;;;;;;8361953;28;19920;-65
2021/05/02 09:20:38;;;;;;;;;;;8.90;99.90;;;;;;8339092;28;20528;-65
2021/05/02 09:24:39;;;;;;;;;;;8.80;99.90;;;;;;8351968;28;20023;-65
2021/05/02 09:28:53;;;;;;;;;;;8.80;99.90;;;;;;8331379;28;19913;-65
2021/05/02 09:32:54;;;;;;;;;;;8.60;99.90;;;;;;8351533;28;20295;-65
2021/05/02 09:36:57;;;;;;;;;;;8.40;99.90;;;;;;8355318;28;19914;-65
2021/05/02 09:41:00;;;;;;;;;;;8.40;99.90;;;;;;8357695;28;20498;-65
2021/05/02 09:45:03;;;;;;;;;;;8.60;99.90;;;;;;8357137;28;20322;-65
2021/05/02 09:49:12;;;;;;;;;;;8.70;99.90;;;;;;8352077;28;19913;-65
2021/05/02 09:53:15;;;;;;;;;;;9.00;99.90;;;;;;8341849;28;19917;-65
2021/05/02 09:57:22;;;;;;;;;;;8.70;99.90;;;;;;8360708;28;19911;-65
2021/05/02 10:01:23;;;;;;;;;;;8.80;99.90;;;;;;8360960;28;19912;-65
2021/05/02 10:05:23;;;;;;;;;;;8.60;99.90;;;;;;8358611;28;19913;-65
2021/05/02 10:09:24;;;;;;;;;;;8.60;99.90;;;;;;8357518;28;21062;-65
2021/05/02 10:13:25;;;;;;;;;;;8.50;99.90;;;;;;8358968;28;19917;-65
2021/05/02 10:17:26;;;;;;;;;;;8.50;99.90;;;;;;8359046;28;19909;-65
2021/05/02 10:21:27;;;;;;;;;;;8.50;99.90;;;;;;8358762;28;19909;-65
2021/05/02 10:25:27;;;;;;;;;;;8.80;99.90;;;;;;8357822;28;19986;-65
2021/05/02 10:29:29;;;;;;;;;;;9.70;99.90;;;;;;8351912;28;19971;-66
2021/05/02 10:33:34;;;;;;;;;;;11.00;99.90;;;;;;8355569;28;19909;-65
2021/05/02 10:37:37;;;;;;;;;;;11.10;99.90;;;;;;8358468;28;19917;-64
2021/05/02 10:41:44;;;;;;;;;;;10.80;99.90;;;;;;8354589;28;19947;-65
2021/05/02 10:45:47;;;;;;;;;;;10.50;99.90;;;;;;8356009;28;20365;-64
2021/05/02 10:49:47;;;;;;;;;;;10.30;99.90;;;;;;8359721;28;19909;-64
2021/05/02 10:54:02;;;;;;;;;;;10.60;99.90;;;;;;8346936;28;19912;-64
2021/05/02 10:58:03;;;;;;;;;;;10.40;99.90;;;;;;8345488;28;20288;-64
2021/05/02 11:02:24;;;;;;;;;;;10.10;99.90;;;;;;8357832;28;20393;-65
2021/05/02 11:06:38;;;;;;;;;;;9.80;99.90;;;;;;8357740;28;22349;-65
2021/05/02 11:10:51;;;;;;;;;;;9.70;99.90;;;;;;8353287;28;19963;-64
2021/05/02 11:14:52;;;;;;;;;;;9.90;99.90;;;;;;8342923;28;19924;-65
2021/05/02 11:18:52;;;;;;;;;;;10.00;99.90;;;;;;8349616;28;19928;-64
2021/05/02 11:22:53;;;;;;;;;;;10.20;99.90;;;;;;8346200;28;20306;-64
2021/05/02 11:27:05;;;;;;;;;;;10.50;99.90;;;;;;8350095;28;19960;-64
2021/05/02 11:31:06;;;;;;;;;;;11.70;99.90;;;;;;8355235;28;19913;-64
2021/05/02 11:35:11;;;;;;;;;;;12.30;99.90;;;;;;8349370;28;20303;-64
2021/05/02 11:39:39;;;;;;;;;;;12.50;99.90;;;;;;8354419;28;19916;-63
2021/05/02 11:43:40;;;;;;;;;;;11.90;99.90;;;;;;8355602;28;19920;-62
2021/05/02 11:47:41;;;;;;;;;;;10.70;99.90;;;;;;8354321;28;20372;-63
2021/05/02 11:51:42;;;;;;;;;;;10.30;99.90;;;;;;8346862;28;19920;-63
2021/05/02 11:55:42;;;;;;;;;;;9.90;99.90;;;;;;8344178;28;20292;-63
2021/05/02 11:59:49;;;;;;;;;;;9.80;99.90;;;;;;8348492;28;19947;-63
2021/05/02 12:03:50;;;;;;;;;;;9.60;99.90;;;;;;8351036;28;19924;-63
2021/05/02 12:08:05;;;;;;;;;;;9.20;99.90;;;;;;8359974;28;19947;-63
2021/05/02 12:12:06;;;;;;;;;;;8.10;99.90;;;;;;8354272;28;20588;-63
2021/05/02 12:16:08;;;;;;;;;;;7.60;99.90;;;;;;8357526;28;19921;-64
2021/05/02 12:20:09;;;;;;;;;;;7.50;99.90;;;;;;8362830;28;20287;-63
2021/05/02 12:24:13;;;;;;;;;;;7.40;99.90;;;;;;8350766;28;19916;-63
2021/05/02 12:28:13;;;;;;;;;;;7.60;99.90;;;;;;8363828;28;19912;-64
2021/05/02 12:32:15;;;;;;;;;;;7.80;99.90;;;;;;8361693;28;19912;-64
2021/05/02 12:36:17;;;;;;;;;;;8.40;99.90;;;;;;8356697;28;19912;-63
2021/05/02 12:40:18;;;;;;;;;;;9.30;99.90;;;;;;8355867;28;20461;-64
2021/05/02 12:44:20;;;;;;;;;;;9.60;99.90;;;;;;8360454;28;19923;-64
2021/05/02 12:48:24;;;;;;;;;;;9.80;99.90;;;;;;8362104;28;19970;-64
2021/05/02 12:52:28;;;;;;;;;;;10.60;99.90;;;;;;8362473;28;20287;-64
2021/05/02 12:56:29;;;;;;;;;;;15.40;99.90;;;;;;8363190;28;19915;-64
2021/05/02 13:00:41;;;;;;;;;;;19.60;99.90;;;;;;8361553;28;20387;-64
2021/05/02 13:04:49;;;;;;;;;;;22.40;83.50;;;;;;8361650;28;19968;-64
2021/05/02 13:08:53;;;;;;;;;;;23.10;76.70;;;;;;8361087;28;20003;-64
2021/05/02 13:12:53;;;;;;;;;;;23.70;67.30;;;;;;8361875;28;19965;-64
2021/05/02 13:16:54;;;;;;;;;;;25.00;64.00;;;;;;8362179;28;19909;-64
2021/05/02 13:20:59;;;;;;;;;;;21.00;67.00;;;;;;8362150;28;19908;-64
2021/05/02 13:25:09;;;;;;;;;;;17.70;99.90;;;;;;8360452;28;19912;-64
2021/05/02 13:29:11;;;;;;;;;;;15.20;93.10;;;;;;8362064;28;19913;-63
2021/05/02 13:33:15;;;;;;;;;;;13.60;95.20;;;;;;8362238;28;19935;-64
2021/05/02 13:37:15;;;;;;;;;;;12.40;99.90;;;;;;8361108;28;20015;-63
2021/05/02 13:41:16;;;;;;;;;;;11.20;99.90;;;;;;8361175;28;19917;-63
2021/05/02 13:45:16;;;;;;;;;;;10.50;99.90;;;;;;8359492;28;20398;-63
2021/05/02 13:49:17;;;;;;;;;;;10.00;99.90;;;;;;8358693;28;19913;-63
2021/05/02 13:53:18;;;;;;;;;;;8.90;99.90;;;;;;8360195;28;19908;-62
2021/05/02 13:57:19;;;;;;;;;;;7.30;99.90;;;;;;8359545;28;19916;-63
2021/05/02 14:01:21;;;;;;;;;;;6.60;99.90;;;;;;8354493;28;19913;-63
2021/05/02 14:05:21;;;;;;;;;;;6.50;99.90;;;;;;8356665;28;20319;-63
2021/05/02 14:09:22;;;;;;;;;;;6.30;99.90;;;;;;8357188;28;19919;-64
2021/05/02 14:13:23;;;;;;;;;;;6.30;99.90;;;;;;8355847;28;19928;-63
2021/05/02 14:17:24;;;;;;;;;;;6.40;99.90;;;;;;8356268;28;19955;-63
2021/05/02 14:21:25;;;;;;;;;;;6.90;99.90;;;;;;8356055;28;19913;-63
2021/05/02 14:25:26;;;;;;;;;;;7.70;99.90;;;;;;8355871;28;19917;-63
2021/05/02 14:29:27;;;;;;;;;;;8.80;99.90;;;;;;8355005;28;20294;-63
2021/05/02 14:33:29;;;;;;;;;;;9.60;99.90;;;;;;8358812;28;19956;-63
2021/05/02 14:37:30;;;;;;;;;;;9.80;99.90;;;;;;8357404;28;19965;-63
2021/05/02 14:41:30;;;;;;;;;;;10.00;99.90;;;;;;8356949;28;19917;-64
2021/05/02 14:45:31;;;;;;;;;;;10.20;99.90;;;;;;8351956;28;19960;-64
2021/05/02 14:49:32;;;;;;;;;;;10.60;99.90;;;;;;8352719;28;19912;-63
2021/05/02 14:53:32;;;;;;;;;;;10.80;99.90;;;;;;8351358;28;19909;-63
2021/05/02 14:57:33;;;;;;;;;;;10.90;99.90;;;;;;8356401;28;19972;-63
2021/05/02 15:01:34;;;;;;;;;;;10.70;99.90;;;;;;8355561;28;19913;-63
2021/05/02 15:05:34;;;;;;;;;;;10.20;99.90;;;;;;8329087;28;19925;-63
2021/05/02 15:09:37;;;;;;;;;;;9.70;99.90;;;;;;8322719;28;19974;-63
2021/05/02 15:13:38;;;;;;;;;;;9.20;99.90;;;;;;8342365;28;20546;-63
2021/05/02 15:17:38;;;;;;;;;;;8.80;99.90;;;;;;8354899;28;19971;-63
2021/05/02 15:21:39;;;;;;;;;;;8.70;99.90;;;;;;8350357;28;19916;-63
2021/05/02 15:25:39;;;;;;;;;;;8.60;99.90;;;;;;8347611;28;19917;-63
2021/05/02 15:29:40;;;;;;;;;;;8.80;99.90;;;;;;8350308;28;19989;-63
2021/05/02 15:33:40;;;;;;;;;;;9.00;99.90;;;;;;8349543;28;19917;-63
2021/05/02 15:37:41;;;;;;;;;;;10.50;99.90;;;;;;8339614;28;19924;-64
2021/05/02 15:41:41;;;;;;;;;;;13.30;99.90;;;;;;8346647;28;19979;-65
2021/05/02 15:45:42;;;;;;;;;;;15.20;99.90;;;;;;8359891;28;19951;-64
2021/05/02 15:49:42;;;;;;;;;;;15.70;99.90;;;;;;8358809;28;19916;-64
2021/05/02 15:53:43;;;;;;;;;;;15.50;99.90;;;;;;8357456;28;19974;-65
2021/05/02 15:57:43;;;;;;;;;;;14.90;99.90;;;;;;8353584;28;19920;-64
2021/05/02 16:01:44;;;;;;;;;;;14.50;99.90;;;;;;8354102;28;19917;-66
2021/05/02 16:05:44;;;;;;;;;;;14.10;99.90;;;;;;8360291;28;19921;-66
2021/05/02 16:09:46;;;;;;;;;;;14.20;99.90;;;;;;8361278;28;20382;-66
2021/05/02 16:13:47;;;;;;;;;;;13.40;99.90;;;;;;8361115;28;19916;-64
2021/05/02 16:17:47;;;;;;;;;;;12.50;99.90;;;;;;8360848;28;20311;-65
2021/05/02 16:21:48;;;;;;;;;;;11.50;99.90;;;;;;8360660;28;19917;-65
2021/05/02 16:25:48;;;;;;;;;;;10.80;99.90;;;;;;8354039;28;19979;-65
2021/05/02 16:29:49;;;;;;;;;;;10.70;99.90;;;;;;8327822;28;20360;-64
2021/05/02 16:33:49;;;;;;;;;;;11.00;99.90;;;;;;8345812;28;19916;-64
2021/05/02 16:37:50;;;;;;;;;;;12.50;99.90;;;;;;8343399;28;20310;-64
2021/05/02 16:41:51;;;;;;;;;;;14.50;99.90;;;;;;8340126;28;20019;-65
2021/05/02 16:45:51;;;;;;;;;;;15.30;99.90;;;;;;8346565;28;19970;-65
2021/05/02 16:49:52;;;;;;;;;;;15.10;99.90;;;;;;8343664;28;19916;-64
2021/05/02 16:53:54;;;;;;;;;;;12.80;99.90;;;;;;8352131;28;19917;-64
2021/05/02 16:57:54;;;;;;;;;;;11.20;99.90;;;;;;8358454;28;19958;-64
2021/05/02 17:01:57;;;;;;;;;;;10.30;99.90;;;;;;8358557;28;20377;-64
2021/05/02 17:05:58;;;;;;;;;;;9.80;99.90;;;;;;8356715;28;19925;-64
2021/05/02 17:09:59;;;;;;;;;;;9.50;99.90;;;;;;8353339;28;19970;-64
2021/05/02 17:13:59;;;;;;;;;;;9.00;99.90;;;;;;8358855;28;20405;-64
2021/05/02 17:18:00;;;;;;;;;;;8.70;99.90;;;;;;8331156;28;20295;-64
2021/05/02 17:22:01;;;;;;;;;;;8.40;99.90;;;;;;8331150;28;19955;-64
2021/05/02 17:26:02;;;;;;;;;;;8.20;99.90;;;;;;8335869;28;19935;-64
2021/05/02 17:30:03;;;;;;;;;;;8.20;99.90;;;;;;8339769;28;19925;-66
2021/05/02 17:34:04;;;;;;;;;;;8.00;99.90;;;;;;8341909;28;20387;-65
2021/05/02 17:38:04;;;;;;;;;;;8.10;99.90;;;;;;8345122;28;19952;-65
2021/05/02 17:42:05;;;;;;;;;;;8.20;99.90;;;;;;8351867;28;19947;-64
2021/05/02 17:46:05;;;;;;;;;;;8.10;99.90;;;;;;8358144;28;19921;-65
2021/05/02 17:50:08;;;;;;;;;;;7.70;99.90;;;;;;8352445;28;19917;-65
2021/05/02 17:54:08;;;;;;;;;;;7.40;99.90;;;;;;8351989;28;20007;-66
2021/05/02 17:58:10;;;;;;;;;;;7.20;99.90;;;;;;8353802;28;19920;-64
2021/05/02 18:02:11;;;;;;;;;;;7.00;99.90;;;;;;8357975;28;19923;-63
2021/05/02 18:06:11;;;;;;;;;;;7.00;99.90;;;;;;8353951;28;19917;-64
2021/05/02 18:10:12;;;;;;;;;;;6.90;99.90;;;;;;8340612;28;19943;-64
2021/05/02 18:14:13;;;;;;;;;;;6.80;99.90;;;;;;8332129;28;19956;-65
2021/05/02 18:18:14;;;;;;;;;;;6.90;99.90;;;;;;8324137;28;20407;-65
2021/05/02 18:22:14;;;;;;;;;;;6.80;99.90;;;;;;8338125;28;20017;-65
2021/05/02 18:26:15;;;;;;;;;;;6.90;99.90;;;;;;8342432;28;19928;-65
2021/05/02 18:30:16;;;;;;;;;;;6.70;99.90;;;;;;8343018;28;19924;-65
2021/05/02 18:34:16;;;;;;;;;;;6.80;99.90;;;;;;8339984;28;19917;-65
2021/05/02 18:38:17;;;;;;;;;;;6.60;99.90;;;;;;8334389;28;19956;-65
2021/05/02 18:42:18;;;;;;;;;;;6.70;99.90;;;;;;8355367;28;19917;-65
2021/05/02 18:46:18;;;;;;;;;;;6.20;99.90;;;;;;8336644;28;19932;-65
2021/05/02 18:50:19;;;;;;;;;;;6.20;99.90;;;;;;8340483;28;19919;-65
2021/05/02 18:54:19;;;;;;;;;;;6.20;99.90;;;;;;8326976;28;19940;-65
2021/05/02 18:58:20;;;;;;;;;;;6.10;99.90;;;;;;8341525;28;19952;-65
2021/05/02 19:02:20;;;;;;;;;;;6.10;99.90;;;;;;8343274;28;19921;-65
2021/05/02 19:06:21;;;;;;;;;;;6.10;99.90;;;;;;8337650;28;19916;-65
2021/05/02 19:10:21;;;;;;;;;;;6.30;99.90;;;;;;8342421;28;19925;-65
2021/05/02 19:14:22;;;;;;;;;;;6.20;99.90;;;;;;8341091;28;19931;-66
2021/05/02 19:18:22;;;;;;;;;;;6.10;99.90;;;;;;8346601;28;19913;-66
2021/05/02 19:22:23;;;;;;;;;;;6.00;99.90;;;;;;8355221;28;19978;-66
2021/05/02 19:26:23;;;;;;;;;;;5.90;99.90;;;;;;8345542;28;19925;-66
2021/05/02 19:30:24;;;;;;;;;;;5.90;99.90;;;;;;8339392;28;19963;-66
2021/05/02 19:34:24;;;;;;;;;;;5.80;99.90;;;;;;8337430;28;19919;-66
2021/05/02 19:38:25;;;;;;;;;;;5.80;99.90;;;;;;8354370;28;19959;-66
2021/05/02 19:42:25;;;;;;;;;;;5.70;99.90;;;;;;8344700;28;19920;-66
2021/05/02 19:46:26;;;;;;;;;;;5.70;99.90;;;;;;8324542;28;19918;-65
2021/05/02 19:50:26;;;;;;;;;;;5.60;99.90;;;;;;8322929;28;20431;-65
2021/05/02 19:54:27;;;;;;;;;;;5.50;99.90;;;;;;8322669;28;20427;-66
2021/05/02 19:58:27;;;;;;;;;;;5.70;99.90;;;;;;8343560;28;19966;-66
2021/05/02 20:02:28;;;;;;;;;;;5.60;99.90;;;;;;8331743;28;19920;-66
2021/05/02 20:06:28;;;;;;;;;;;5.70;99.90;;;;;;8345683;28;19921;-68
2021/05/02 20:10:29;;;;;;;;;;;5.40;99.90;;;;;;8345174;28;19928;-66
2021/05/02 20:14:29;;;;;;;;;;;5.20;99.90;;;;;;8347894;28;19970;-66
2021/05/02 20:18:30;;;;;;;;;;;5.10;99.90;;;;;;8322252;28;19956;-66
2021/05/02 20:22:30;;;;;;;;;;;5.20;99.90;;;;;;8338199;28;20291;-65
2021/05/02 20:26:31;;;;;;;;;;;5.40;99.90;;;;;;8326926;28;19996;-65
2021/05/02 20:30:32;;;;;;;;;;;5.20;99.90;;;;;;8350291;28;20300;-65
2021/05/02 20:34:32;;;;;;;;;;;5.20;99.90;;;;;;8348019;28;19916;-66
2021/05/02 20:38:33;;;;;;;;;;;5.00;99.90;;;;;;8333442;28;19932;-66
2021/05/02 20:42:33;;;;;;;;;;;5.00;99.90;;;;;;8328745;28;19995;-65
2021/05/02 20:46:34;;;;;;;;;;;5.00;99.90;;;;;;8346613;28;19919;-66
2021/05/02 20:50:37;;;;;;;;;;;5.10;99.90;;;;;;8344140;28;20252;-65
2021/05/02 20:54:37;;;;;;;;;;;5.20;99.90;;;;;;8359992;28;19909;-65
2021/05/02 20:58:37;;;;;;;;;;;5.10;99.90;;;;;;8360266;28;20370;-65
2021/05/02 21:02:39;;;;;;;;;;;5.20;99.90;;;;;;8359407;28;19913;-65
2021/05/02 21:06:39;;;;;;;;;;;5.10;99.90;;;;;;8358761;28;19917;-65
2021/05/02 21:10:39;;;;;;;;;;;5.00;99.90;;;;;;8359932;28;19920;-66
2021/05/02 21:14:40;;;;;;;;;;;4.60;99.90;;;;;;8359041;28;20354;-65
2021/05/02 21:18:40;;;;;;;;;;;4.60;99.90;;;;;;8357421;28;19912;-65
2021/05/02 21:22:41;;;;;;;;;;;4.40;99.90;;;;;;8358905;28;20000;-65
2021/05/02 21:26:41;;;;;;;;;;;4.50;99.90;;;;;;8359146;28;19944;-65
2021/05/02 21:30:42;;;;;;;;;;;4.40;99.90;;;;;;8359129;28;19909;-65
2021/05/02 21:34:42;;;;;;;;;;;4.40;99.90;;;;;;8359060;28;19909;-66
2021/05/02 21:38:43;;;;;;;;;;;4.40;99.90;;;;;;8358555;28;19956;-66
2021/05/02 21:42:43;;;;;;;;;;;4.40;99.90;;;;;;8358205;28;20354;-65
2021/05/02 21:46:45;;;;;;;;;;;4.50;99.90;;;;;;8357427;28;20474;-65
2021/05/02 21:50:45;;;;;;;;;;;4.50;99.90;;;;;;8357225;28;19913;-65
2021/05/02 21:54:46;;;;;;;;;;;4.60;99.90;;;;;;8356779;28;19909;-65
2021/05/02 21:58:47;;;;;;;;;;;4.50;99.90;;;;;;8357960;28;19921;-65
2021/05/02 22:02:47;;;;;;;;;;;4.80;99.90;;;;;;8356510;28;19919;-65
2021/05/02 22:06:48;;;;;;;;;;;4.90;99.90;;;;;;8358167;28;19913;-65
2021/05/02 22:10:49;;;;;;;;;;;4.90;99.90;;;;;;8357863;28;19908;-66
2021/05/02 22:14:50;;;;;;;;;;;4.90;99.90;;;;;;8357483;28;19919;-66
2021/05/02 22:18:50;;;;;;;;;;;4.90;99.90;;;;;;8357134;28;19912;-65
2021/05/02 22:22:50;;;;;;;;;;;4.90;99.90;;;;;;8357246;28;20027;-66
2021/05/02 22:26:51;;;;;;;;;;;4.80;99.90;;;;;;8357343;28;19913;-66
2021/05/02 22:30:53;;;;;;;;;;;5.00;99.90;;;;;;8356786;28;19909;-65
2021/05/02 22:34:53;;;;;;;;;;;5.20;99.90;;;;;;8355575;28;19912;-66
2021/05/02 22:38:54;;;;;;;;;;;5.30;99.90;;;;;;8357005;28;19952;-65
2021/05/02 22:42:55;;;;;;;;;;;5.30;99.90;;;;;;8356417;28;19920;-65
2021/05/02 22:46:57;;;;;;;;;;;5.40;99.90;;;;;;8356841;28;19916;-65
2021/05/02 22:50:58;;;;;;;;;;;5.30;99.90;;;;;;8354791;28;19913;-65
2021/05/02 22:54:59;;;;;;;;;;;5.20;99.90;;;;;;8356403;28;19920;-65
2021/05/02 22:58:59;;;;;;;;;;;5.20;99.90;;;;;;8356650;28;19952;-65
2021/05/02 23:03:07;;;;;;;;;;;5.20;99.90;;;;;;8356325;28;19948;-65
2021/05/02 23:07:07;;;;;;;;;;;5.30;99.90;;;;;;8356816;28;19919;-65
2021/05/02 23:11:08;;;;;;;;;;;5.20;99.90;;;;;;8356355;28;19917;-65
2021/05/02 23:15:09;;;;;;;;;;;5.20;99.90;;;;;;8356389;28;20011;-65
2021/05/02 23:19:09;;;;;;;;;;;5.20;99.90;;;;;;8356194;28;19973;-65
2021/05/02 23:23:10;;;;;;;;;;;5.20;99.90;;;;;;8354979;28;19940;-65
2021/05/02 23:27:10;;;;;;;;;;;5.20;99.90;;;;;;8356665;28;19951;-65
2021/05/02 23:31:11;;;;;;;;;;;5.20;99.90;;;;;;8356269;28;19913;-65
2021/05/02 23:35:12;;;;;;;;;;;5.20;99.90;;;;;;8357146;28;19909;-65
2021/05/02 23:39:13;;;;;;;;;;;5.20;99.90;;;;;;8359256;28;19955;-65
2021/05/02 23:43:14;;;;;;;;;;;5.30;99.90;;;;;;8358575;28;20414;-65